createdAt,value
2023-01-28T00:01:58.612Z,19.20
2023-01-28T00:07:01.605Z,16.30
2023-01-28T00:12:04.704Z,14.13
2023-01-28T00:17:07.509Z,13.13
2023-01-28T00:22:10.407Z,20.27
2023-01-28T00:27:13.237Z,15.73
2023-01-28T05:35:30.090Z,10.03
2023-01-28T05:40:33.006Z,7.33
2023-01-28T05:45:35.892Z,7.33
2023-01-28T05:50:38.795Z,8.83
2023-01-28T05:55:41.668Z,9.80
2023-01-28T06:00:44.563Z,11.23
2023-01-28T06:05:48.712Z,7.07
2023-01-28T06:10:51.558Z,9.10
2023-01-28T06:15:54.498Z,8.20
2023-01-28T06:20:57.363Z,14.10
2023-01-28T06:26:00.447Z,7.27
2023-01-28T06:31:03.530Z,8.83
2023-01-28T06:36:07.111Z,9.40
2023-01-28T06:41:10.071Z,8.63
2023-01-28T06:46:12.974Z,16.23
2023-01-28T06:51:15.908Z,9.93
2023-01-28T06:56:18.922Z,9.13
2023-01-28T07:01:21.793Z,11.73
2023-01-28T07:06:24.637Z,11.17
2023-01-28T07:11:27.485Z,16.23
2023-01-28T07:16:30.340Z,12.03
2023-01-28T07:21:33.166Z,11.17
2023-01-28T07:26:35.991Z,15.13
2023-01-28T07:31:38.909Z,8.67
2023-01-28T07:36:42.043Z,9.30
2023-01-28T07:41:44.960Z,16.10
2023-01-28T07:46:47.849Z,6.37
2023-01-28T07:51:51.032Z,9.60
2023-01-28T07:56:53.884Z,11.83
2023-01-28T08:01:56.715Z,7.47
2023-01-28T08:06:59.573Z,13.23
2023-01-28T08:12:03.472Z,9.53
2023-01-28T08:17:06.329Z,6.83
2023-01-28T08:22:09.212Z,10.97
2023-01-28T08:27:12.038Z,6.70
2023-01-28T08:32:14.919Z,10.60
2023-01-28T08:37:17.804Z,7.40
2023-01-28T08:42:20.665Z,6.90
2023-01-28T08:47:23.550Z,8.53
2023-01-28T08:52:26.425Z,8.30
2023-01-28T08:57:29.292Z,13.47
2023-01-28T09:02:32.498Z,8.23
2023-01-28T09:07:36.146Z,11.70
2023-01-28T09:12:39.233Z,6.33
2023-01-28T09:17:42.352Z,10.63
2023-01-28T09:22:45.251Z,7.40
2023-01-28T09:27:48.154Z,6.67
2023-01-28T09:32:52.277Z,4.90
2023-01-28T09:37:58.465Z,5.10
2023-01-28T09:43:21.031Z,10.80
2023-01-28T09:48:33.822Z,7.97
2023-01-28T09:53:42.254Z,5.87
2023-01-28T09:58:45.112Z,6.50
2023-01-28T10:04:13.947Z,9.50
2023-01-28T10:09:32.253Z,7.73
2023-01-28T10:14:54.432Z,7.07
2023-01-28T10:20:05.682Z,10.00
2023-01-28T10:25:23.264Z,6.23
2023-01-28T10:30:30.172Z,7.23
2023-01-28T10:35:39.392Z,7.13
2023-01-28T10:40:43.151Z,9.07
2023-01-28T10:45:59.115Z,5.90
2023-01-28T10:51:06.117Z,10.07
2023-01-28T10:56:26.835Z,5.23
2023-01-28T11:01:42.311Z,8.43
2023-01-28T11:07:00.739Z,8.17
2023-01-28T11:12:28.101Z,9.07
2023-01-28T11:17:34.134Z,7.87
2023-01-28T11:22:39.830Z,6.83
2023-01-28T11:27:48.140Z,9.40
2023-01-28T11:33:00.261Z,8.37
2023-01-28T11:38:03.373Z,11.33
2023-01-28T11:43:09.340Z,9.90
2023-01-28T11:48:37.928Z,5.37
2023-01-28T11:53:56.239Z,10.60
2023-01-28T11:59:30.244Z,7.87
2023-01-28T12:05:00.373Z,7.83
2023-01-28T12:10:10.584Z,9.23
2023-01-28T12:15:38.568Z,10.37
2023-01-28T12:21:08.448Z,9.53
2023-01-28T12:26:23.079Z,10.30
2023-01-28T12:31:55.756Z,9.97
2023-01-28T12:37:04.575Z,10.97
2023-01-28T12:42:19.861Z,9.30
2023-01-28T12:47:44.200Z,8.87
2023-01-28T12:53:03.957Z,11.17
2023-01-28T12:58:12.673Z,8.33
2023-01-28T13:03:31.237Z,13.27
2023-01-28T13:08:34.162Z,10.63
2023-01-28T13:13:38.579Z,11.97
2023-01-28T13:18:44.223Z,15.23
2023-01-28T13:23:48.830Z,8.97
2023-01-28T13:28:53.196Z,11.83
2023-01-28T13:33:55.998Z,14.07
2023-01-28T13:39:02.617Z,14.03
2023-01-28T13:44:17.090Z,11.07
2023-01-28T13:49:42.563Z,17.73
2023-01-28T13:54:51.983Z,13.07
2023-01-28T14:00:33.678Z,12.00
2023-01-28T14:05:58.507Z,11.27
2023-01-28T14:11:35.610Z,14.60
2023-01-28T14:17:04.153Z,16.80
2023-01-28T14:22:10.681Z,16.83
2023-01-28T14:27:28.240Z,9.00
2023-01-28T14:32:32.127Z,15.60
2023-01-28T14:37:35.034Z,17.20
2023-01-28T14:42:40.694Z,14.07
2023-01-28T14:48:11.389Z,13.67
2023-01-28T14:53:31.666Z,15.80
2023-01-28T14:58:41.381Z,20.60
2023-01-28T15:03:46.449Z,15.13
2023-01-28T15:08:51.258Z,15.37
2023-01-28T15:13:57.119Z,16.97
2023-01-28T15:19:01.360Z,12.30
2023-01-28T15:24:05.196Z,18.83
2023-01-28T15:29:21.188Z,17.03
2023-01-28T15:34:30.032Z,20.30
2023-01-28T15:39:33.005Z,22.03
2023-01-28T15:44:38.136Z,19.90
2023-01-28T15:49:45.241Z,21.13
2023-01-28T15:54:52.514Z,20.73
2023-01-28T16:00:08.588Z,24.60
2023-01-28T16:05:31.470Z,22.03
2023-01-28T16:10:34.438Z,19.20
2023-01-28T16:15:39.219Z,21.60
2023-01-28T16:20:42.133Z,24.27
2023-01-28T16:25:44.987Z,26.43
2023-01-28T16:30:47.887Z,26.73
2023-01-28T16:36:07.461Z,22.27
2023-01-28T16:41:23.429Z,30.73
2023-01-28T16:46:27.785Z,28.10
2023-01-28T16:51:30.734Z,27.70
2023-01-28T16:56:49.704Z,25.83
2023-01-28T17:01:52.576Z,24.43
2023-01-28T17:06:55.450Z,25.67
2023-01-28T17:11:58.341Z,25.50
2023-01-28T17:17:01.245Z,27.50
2023-01-28T17:22:04.125Z,20.87
2023-01-28T17:27:07.008Z,28.20
2023-01-28T17:32:09.973Z,24.70
2023-01-28T17:37:12.859Z,20.30
2023-01-28T17:42:17.019Z,23.53
2023-01-28T17:47:19.929Z,26.07
2023-01-28T17:52:22.930Z,24.87
2023-01-28T17:57:26.052Z,22.57
2023-01-28T18:02:28.978Z,21.57
2023-01-28T18:07:31.877Z,21.07
2023-01-28T18:12:34.707Z,23.73
2023-01-28T18:17:37.668Z,18.20
2023-01-28T18:22:40.555Z,24.53
2023-01-28T18:27:43.610Z,23.00
2023-01-28T18:32:46.502Z,23.93
2023-01-28T18:37:49.351Z,36.33
2023-01-28T18:42:52.240Z,21.73
2023-01-28T18:47:55.267Z,23.37
2023-01-28T18:52:58.061Z,17.27
2023-01-28T18:58:00.915Z,22.50
2023-01-28T19:03:03.827Z,21.63
2023-01-28T19:08:08.664Z,23.83
2023-01-28T19:13:11.473Z,25.77
2023-01-28T19:18:14.558Z,21.57
2023-01-28T19:23:17.895Z,19.80
2023-01-28T19:28:20.955Z,25.77
2023-01-28T19:33:23.976Z,22.93
2023-01-28T19:38:27.768Z,18.57
2023-01-28T19:43:30.689Z,13.83
2023-01-28T19:48:34.202Z,13.57
2023-01-28T19:53:38.131Z,13.00
2023-01-28T19:58:43.121Z,17.80
2023-01-28T20:03:49.367Z,11.37
2023-01-28T20:08:58.262Z,17.93
2023-01-28T20:14:01.201Z,17.13
2023-01-28T20:19:09.038Z,20.83
2023-01-28T20:24:13.565Z,16.97
2023-01-28T20:29:18.638Z,12.90
2023-01-28T20:34:21.531Z,11.93
2023-01-28T20:39:24.410Z,13.73
2023-01-28T20:44:31.914Z,9.23
2023-01-28T20:49:34.810Z,10.60
2023-01-28T20:54:37.836Z,13.40
2023-01-28T20:59:40.717Z,9.50
2023-01-28T21:04:43.581Z,13.60
2023-01-28T21:09:46.528Z,15.93
2023-01-28T21:14:50.597Z,14.83
2023-01-28T21:19:53.495Z,12.80
2023-01-28T21:24:56.310Z,11.80
2023-01-28T21:29:59.258Z,13.07
2023-01-28T21:35:02.246Z,17.37
2023-01-28T21:40:08.784Z,12.17
2023-01-28T21:45:12.075Z,14.03
2023-01-28T21:50:15.517Z,8.43
2023-01-28T21:55:18.837Z,12.30
2023-01-28T22:00:22.245Z,8.97
2023-01-28T22:05:25.153Z,9.03
2023-01-28T22:10:28.089Z,11.60
2023-01-28T22:15:32.279Z,10.20
2023-01-28T22:20:35.163Z,7.20
2023-01-28T22:25:38.024Z,9.03
2023-01-28T22:30:40.926Z,4.10
2023-01-28T22:35:43.850Z,7.83
2023-01-28T22:40:46.688Z,9.07
2023-01-28T22:45:57.256Z,7.13
2023-01-28T22:51:06.277Z,7.53
2023-01-28T22:56:09.190Z,9.97
2023-01-28T23:01:15.421Z,8.87
2023-01-28T23:06:20.489Z,10.33
2023-01-28T23:11:27.358Z,10.30
2023-01-28T23:16:50.045Z,8.27
2023-01-28T23:22:11.389Z,7.73
2023-01-28T23:27:14.283Z,7.87
2023-01-28T23:32:17.135Z,6.33
2023-01-28T23:37:19.962Z,8.73
2023-01-28T23:42:23.602Z,8.60
2023-01-28T23:47:26.566Z,10.27
2023-01-28T23:52:29.523Z,5.50
2023-01-28T23:57:32.909Z,7.73
